AirNav   Get $300 off a Bose A20
 
 337 users online  

0OH6 Fry Field Airport
Spring Valley, Ohio, USA

GOING TO SPRING VALLEY?


FAA INFORMATION EFFECTIVE 23 MAY 2019

Location

FAA Identifier: 0OH6
Lat/Long: 39-36-02.2160N / 084-01-10.7580W
39-36.036933N / 084-01.179300W
39.6006156 / -84.0196550
(estimated)
Elevation: 775 ft. / 236 m (estimated)
Variation: 04W (1985)
From city: 1 mile SW of SPRING VALLEY, OH
Time zone: UTC -4 (UTC -5 during Standard Time)
Zip code: 45370

Airport Operations

Airport use: Private use. Permission required prior to landing
Activation date: 10/1989
Control tower: no
ARTCC: INDIANAPOLIS CENTER
FSS: DAYTON FLIGHT SERVICE STATION
Attendance: CONTINUOUS
Wind indicator: yes
Segmented circle: no

Airport Communications

WX AWOS-3 at I19 (6 nm N): 118.525 (937-372-4668)
WX AWOS-3 at I66 (9 nm SE): 124.175 (937-382-1376)
WX ASOS at MGY (10 nm W): 118.375 (937-885-2171)
WX AWOS-3 at I68 (14 nm SW): 120.55 (513-934-5500)
WX ASOS at ILN (15 nm SE): PHONE 937-383-7334
WX AWOS-3PT at SGH (17 nm NE): 134.975
WX AWOS-3 at MWO (18 nm W): 120.025 (513-422-3505)

Nearby radio navigation aids

VOR radial/distance  VOR name  Freq  Var
MXQr319/14.4MIDWEST VOR/DME112.9004W
SGHr214/16.3SPRINGFIELD VOR/DME113.2004W
DQNr146/30.4DAYTON VOR/DME114.5001W

 
NDB name  Hdg/Dist  Freq  Var  ID
ONIDA089/14.122304WMW -- .--
AIRBO300/14.540704WIL .. .-..
CLARK COUNTY218/19.834104WCCJ -.-. -.-. .---
HOOK FIELD077/20.723904WHKF .... -.- ..-.
COURT HOUSE276/29.041406WCSS -.-. ... ...
CINCINNATI033/30.433504WLUK .-.. ..- -.-
SPORTYS020/32.724504WPWF .--. .-- ..-.

Airport Services

Runway Information

Runway 4/22

Dimensions: 800 x 50 ft. / 244 x 15 m
Surface: turf
RUNWAY 4  RUNWAY 22
Traffic pattern: leftleft
Obstructions: berm30 ft. pline

Airport Ownership and Management from official FAA records

Ownership: Privately-owned
Owner: TIMOTHY JOHN FRY
2125 CENTERVILLE RD
SPRING VALLEY, OH 45370
Phone 513-862-5271
Manager: TIMOTHY JOHN FRY
2125 CENTERVILLE RD
SPRING VALLEY, OH 45370
Phone 513-862-5271

Additional Remarks

60' PLINE 1 MILE WEST OF ARPT.

Instrument Procedures

There are no published instrument procedures at 0OH6.

Some nearby airports with instrument procedures:

I19 - Greene County-Lewis A Jackson Regional Airport (6 nm N)
I66 - Clinton Field Airport (9 nm SE)
KMGY - Dayton-Wright Brothers Airport (10 nm W)
KFFO - Wright-Patterson Air Force Base (14 nm N)
I68 - Warren County Airport/John Lane Field (14 nm SW)
KILN - Wilmington Air Park (15 nm SE)
KSGH - Springfield-Beckley Municipal Airport (17 nm NE)
KMWO - Middletown Regional Airport/Hook Field (18 nm W)
 
Loc | Ops | Rwys | IFR | FBO | Links
Com | Nav | Svcs | Stats | Notes
Area around 0OH6 (Fry Field Airport)
 
Road maps at: MapQuest Bing Google
 
Aerial photo
No photo
 
Sectional chart

 
Airport distance calculator
Flying to Fry Field Airport? Find the distance to fly.

From to 0OH6

Sunrise and sunset
Times for 24-May-2019
 Local
(UTC-4)
 Zulu
(UTC)
Morning civil twilight05:4409:44
Sunrise06:1610:16
Sunset20:5000:50
Evening civil twilight21:2101:21

Current date and time
Zulu (UTC)  24-May-2019 06:27:37
Local (UTC-4)  24-May-2019 02:27:37
 
METAR
KMGY 
10nm W 
240553Z AUTO 35003KT 10SM BKN041 22/19 A3009 RMK AO2 SLP181 T02220189 10267 20222 55000
KFFO 
13nm N 
240556Z 00000KT 10SM MIFG FEW060 18/18 A3009 RMK AO2A SLP188 T01830180 10251 20183 50002
KI68 
14nm SW 
240615Z AUTO 00000KT 10SM SCT030 BKN039 21/21 A3010 RMK AO1 T02080208
KILN 
14nm SE 
240554Z AUTO 00000KT 3SM BR FEW027 20/20 A3009 RMK AO2 SLP182 60000 T02000200 10228 20200 51001
KSGH 
16nm NE 
240556Z AUTO 31005KT 10SM CLR 18/16 A3010 RMK AO2 SLP188 60000 T01830161 10261 20183 51001
KMWO 
18nm W 
240615Z AUTO 00000KT 5SM BR SCT038 OVC046 19/19 A3010 RMK AO2 T01890187
TAF
KFFO 
13nm N 
240530Z 2405/2509 28006KT 9999 FEW060 QNH3004INS BECMG 2407/2408 VRB06KT 8000 BR BKN060 QNH3009INS BECMG 2412/2413 14009KT 9999 NSW BKN040 QNH3012INS TEMPO 2417/2421 9000 -SHRA BECMG 2421/2422 16006KT 9999 BKN045 QNH3010INS WND 12006KT AFT 2500 TX21/2405Z TN17/2412Z
KILN 
14nm SE 
240535Z 2406/2506 35005KT P6SM SCT250 FM241300 VRB04KT P6SM BKN250 FM241800 22005KT P6SM BKN100 FM242200 18004KT P6SM SCT150
NOTAMs
Click for the latest NOTAMs
NOTAMs are issued by the DoD/FAA and will open in a separate window not controlled by AirNav.

 

 
 

Would you like to see your business listed on this page?

 If your business provides an interesting product or service to pilots, flight crews, aircraft, or users of the Fry Field Airport, you should consider listing it here.  To start the listing process, click on the button below
 
Add a business
 

Other Pages about Fry Field Airport

Update a link
 
Copyright © AirNav, LLC. All rights reserved. Privacy Policy  Contact